sensor_id;sensor_type;location;lat;lon;timestamp;P1;durP1;ratioP1;P2;durP2;ratioP2
69026;SDS011;56080;47.594;19.116;2024-03-29T00:06:33;2.10;;;0.50;;
69026;SDS011;56080;47.594;19.116;2024-03-29T00:16:36;1.50;;;0.40;;
69026;SDS011;56080;47.594;19.116;2024-03-29T00:26:34;1.60;;;0.50;;
69026;SDS011;56080;47.594;19.116;2024-03-29T00:36:35;1.70;;;0.50;;
69026;SDS011;56080;47.594;19.116;2024-03-29T00:46:36;1.10;;;0.30;;
69026;SDS011;56080;47.594;19.116;2024-03-29T00:56:38;2.20;;;0.40;;
69026;SDS011;56080;47.594;19.116;2024-03-29T01:06:38;2.00;;;0.50;;
69026;SDS011;56080;47.594;19.116;2024-03-29T01:16:41;1.60;;;0.40;;
69026;SDS011;56080;47.594;19.116;2024-03-29T01:26:39;1.40;;;0.40;;
69026;SDS011;56080;47.594;19.116;2024-03-29T01:36:40;2.40;;;0.60;;
69026;SDS011;56080;47.594;19.116;2024-03-29T01:46:43;2.70;;;0.40;;
69026;SDS011;56080;47.594;19.116;2024-03-29T01:56:42;1.50;;;0.40;;
69026;SDS011;56080;47.594;19.116;2024-03-29T02:16:43;1.90;;;0.40;;
69026;SDS011;56080;47.594;19.116;2024-03-29T02:26:46;1.20;;;0.30;;
69026;SDS011;56080;47.594;19.116;2024-03-29T02:36:46;2.40;;;0.50;;
69026;SDS011;56080;47.594;19.116;2024-03-29T02:46:47;1.80;;;0.40;;
69026;SDS011;56080;47.594;19.116;2024-03-29T02:56:45;1.40;;;0.30;;
69026;SDS011;56080;47.594;19.116;2024-03-29T03:06:47;1.30;;;0.30;;
69026;SDS011;56080;47.594;19.116;2024-03-29T03:16:47;2.10;;;0.50;;
69026;SDS011;56080;47.594;19.116;2024-03-29T03:26:49;1.60;;;0.50;;
69026;SDS011;56080;47.594;19.116;2024-03-29T03:46:49;1.70;;;0.40;;
69026;SDS011;56080;47.594;19.116;2024-03-29T03:56:50;1.80;;;0.40;;
69026;SDS011;56080;47.594;19.116;2024-03-29T04:06:51;2.30;;;0.60;;
69026;SDS011;56080;47.594;19.116;2024-03-29T04:16:51;1.70;;;0.50;;
69026;SDS011;56080;47.594;19.116;2024-03-29T04:26:53;2.50;;;0.70;;
69026;SDS011;56080;47.594;19.116;2024-03-29T04:36:53;4.50;;;1.80;;
69026;SDS011;56080;47.594;19.116;2024-03-29T04:46:52;7.40;;;4.10;;
69026;SDS011;56080;47.594;19.116;2024-03-29T04:56:53;4.90;;;1.50;;
69026;SDS011;56080;47.594;19.116;2024-03-29T05:06:55;4.00;;;1.30;;
69026;SDS011;56080;47.594;19.116;2024-03-29T05:16:56;3.80;;;1.00;;
69026;SDS011;56080;47.594;19.116;2024-03-29T05:36:55;3.60;;;1.10;;
69026;SDS011;56080;47.594;19.116;2024-03-29T05:46:56;4.10;;;1.70;;
69026;SDS011;56080;47.594;19.116;2024-03-29T05:56:57;4.70;;;1.60;;
69026;SDS011;56080;47.594;19.116;2024-03-29T06:06:58;4.00;;;1.50;;
69026;SDS011;56080;47.594;19.116;2024-03-29T06:26:59;3.90;;;1.30;;
69026;SDS011;56080;47.594;19.116;2024-03-29T06:47:04;4.40;;;1.60;;
69026;SDS011;56080;47.594;19.116;2024-03-29T06:57:01;4.60;;;1.60;;
69026;SDS011;56080;47.594;19.116;2024-03-29T07:07:02;4.70;;;1.60;;
69026;SDS011;56080;47.594;19.116;2024-03-29T07:17:02;5.10;;;1.20;;
69026;SDS011;56080;47.594;19.116;2024-03-29T07:27:03;3.80;;;1.10;;
69026;SDS011;56080;47.594;19.116;2024-03-29T07:37:03;2.80;;;0.90;;
69026;SDS011;56080;47.594;19.116;2024-03-29T07:47:04;3.30;;;1.00;;
69026;SDS011;56080;47.594;19.116;2024-03-29T07:57:05;3.60;;;1.00;;
69026;SDS011;56080;47.594;19.116;2024-03-29T08:07:06;3.50;;;1.10;;
69026;SDS011;56080;47.594;19.116;2024-03-29T08:17:12;3.60;;;1.30;;
69026;SDS011;56080;47.594;19.116;2024-03-29T08:27:09;3.00;;;0.80;;
69026;SDS011;56080;47.594;19.116;2024-03-29T08:37:08;3.50;;;0.90;;
69026;SDS011;56080;47.594;19.116;2024-03-29T08:47:11;2.60;;;0.70;;
69026;SDS011;56080;47.594;19.116;2024-03-29T08:57:13;3.60;;;1.00;;
69026;SDS011;56080;47.594;19.116;2024-03-29T09:07:13;2.80;;;0.70;;
69026;SDS011;56080;47.594;19.116;2024-03-29T09:17:13;3.00;;;0.80;;
69026;SDS011;56080;47.594;19.116;2024-03-29T09:27:14;1.70;;;0.50;;
69026;SDS011;56080;47.594;19.116;2024-03-29T09:37:15;3.20;;;0.60;;
69026;SDS011;56080;47.594;19.116;2024-03-29T09:47:17;2.60;;;0.60;;
69026;SDS011;56080;47.594;19.116;2024-03-29T09:57:18;1.30;;;0.30;;
69026;SDS011;56080;47.594;19.116;2024-03-29T10:07:19;1.70;;;0.40;;
69026;SDS011;56080;47.594;19.116;2024-03-29T10:17:20;2.30;;;0.50;;
69026;SDS011;56080;47.594;19.116;2024-03-29T10:27:21;1.70;;;0.50;;
69026;SDS011;56080;47.594;19.116;2024-03-29T10:37:23;2.30;;;0.40;;
69026;SDS011;56080;47.594;19.116;2024-03-29T10:47:28;2.20;;;0.60;;
69026;SDS011;56080;47.594;19.116;2024-03-29T10:57:42;2.70;;;0.60;;
69026;SDS011;56080;47.594;19.116;2024-03-29T11:07:29;2.40;;;0.60;;
69026;SDS011;56080;47.594;19.116;2024-03-29T11:17:29;4.20;;;0.70;;
69026;SDS011;56080;47.594;19.116;2024-03-29T11:27:33;4.00;;;0.80;;
69026;SDS011;56080;47.594;19.116;2024-03-29T11:47:32;3.60;;;0.80;;
69026;SDS011;56080;47.594;19.116;2024-03-29T11:57:33;5.40;;;1.10;;
69026;SDS011;56080;47.594;19.116;2024-03-29T12:07:34;4.60;;;1.00;;
69026;SDS011;56080;47.594;19.116;2024-03-29T12:17:35;4.80;;;1.10;;
69026;SDS011;56080;47.594;19.116;2024-03-29T12:27:37;6.60;;;1.40;;
69026;SDS011;56080;47.594;19.116;2024-03-29T12:37:46;4.40;;;0.90;;
69026;SDS011;56080;47.594;19.116;2024-03-29T12:47:39;6.20;;;1.20;;
69026;SDS011;56080;47.594;19.116;2024-03-29T12:57:47;5.00;;;1.20;;
69026;SDS011;56080;47.594;19.116;2024-03-29T13:07:42;5.50;;;1.20;;
69026;SDS011;56080;47.594;19.116;2024-03-29T13:17:43;6.40;;;1.30;;
69026;SDS011;56080;47.594;19.116;2024-03-29T13:27:47;5.50;;;1.40;;
69026;SDS011;56080;47.594;19.116;2024-03-29T13:37:48;4.20;;;1.20;;
69026;SDS011;56080;47.594;19.116;2024-03-29T13:47:49;6.40;;;1.30;;
69026;SDS011;56080;47.594;19.116;2024-03-29T13:57:50;5.80;;;1.30;;
69026;SDS011;56080;47.594;19.116;2024-03-29T14:07:51;6.20;;;1.30;;
69026;SDS011;56080;47.594;19.116;2024-03-29T14:17:52;7.10;;;1.50;;
69026;SDS011;56080;47.594;19.116;2024-03-29T14:27:59;6.50;;;1.50;;
69026;SDS011;56080;47.594;19.116;2024-03-29T14:37:55;5.30;;;1.20;;
69026;SDS011;56080;47.594;19.116;2024-03-29T14:47:57;9.40;;;1.70;;
69026;SDS011;56080;47.594;19.116;2024-03-29T14:57:58;6.40;;;1.60;;
69026;SDS011;56080;47.594;19.116;2024-03-29T15:08:00;7.50;;;1.70;;
69026;SDS011;56080;47.594;19.116;2024-03-29T15:18:03;6.20;;;1.50;;
69026;SDS011;56080;47.594;19.116;2024-03-29T15:48:07;7.90;;;1.60;;
69026;SDS011;56080;47.594;19.116;2024-03-29T15:58:08;6.20;;;1.50;;
69026;SDS011;56080;47.594;19.116;2024-03-29T16:08:09;5.20;;;1.80;;
69026;SDS011;56080;47.594;19.116;2024-03-29T16:18:11;6.80;;;1.80;;
69026;SDS011;56080;47.594;19.116;2024-03-29T16:28:13;6.90;;;1.80;;
69026;SDS011;56080;47.594;19.116;2024-03-29T16:38:14;6.30;;;1.60;;
69026;SDS011;56080;47.594;19.116;2024-03-29T16:48:16;8.50;;;1.90;;
69026;SDS011;56080;47.594;19.116;2024-03-29T16:58:17;6.90;;;1.70;;
69026;SDS011;56080;47.594;19.116;2024-03-29T17:08:19;7.00;;;1.90;;
69026;SDS011;56080;47.594;19.116;2024-03-29T17:18:20;8.70;;;2.30;;
69026;SDS011;56080;47.594;19.116;2024-03-29T17:28:22;8.40;;;2.20;;
69026;SDS011;56080;47.594;19.116;2024-03-29T17:38:23;8.10;;;2.20;;
69026;SDS011;56080;47.594;19.116;2024-03-29T17:48:25;6.60;;;2.00;;
69026;SDS011;56080;47.594;19.116;2024-03-29T17:58:26;7.20;;;2.10;;
69026;SDS011;56080;47.594;19.116;2024-03-29T18:08:29;8.70;;;2.70;;
69026;SDS011;56080;47.594;19.116;2024-03-29T18:18:30;7.30;;;2.40;;
69026;SDS011;56080;47.594;19.116;2024-03-29T18:28:35;7.20;;;2.80;;
69026;SDS011;56080;47.594;19.116;2024-03-29T18:38:32;10.00;;;2.70;;
69026;SDS011;56080;47.594;19.116;2024-03-29T18:48:33;6.90;;;2.20;;
69026;SDS011;56080;47.594;19.116;2024-03-29T19:18:38;9.30;;;2.70;;
69026;SDS011;56080;47.594;19.116;2024-03-29T19:28:40;8.00;;;2.50;;
69026;SDS011;56080;47.594;19.116;2024-03-29T19:38:41;7.10;;;2.80;;
69026;SDS011;56080;47.594;19.116;2024-03-29T19:48:43;6.50;;;2.10;;
69026;SDS011;56080;47.594;19.116;2024-03-29T19:58:45;7.00;;;2.10;;
69026;SDS011;56080;47.594;19.116;2024-03-29T20:08:45;6.30;;;2.10;;
69026;SDS011;56080;47.594;19.116;2024-03-29T20:18:47;8.10;;;2.40;;
69026;SDS011;56080;47.594;19.116;2024-03-29T20:28:48;9.40;;;2.60;;
69026;SDS011;56080;47.594;19.116;2024-03-29T20:38:49;8.00;;;2.90;;
69026;SDS011;56080;47.594;19.116;2024-03-29T20:48:52;8.80;;;2.40;;
69026;SDS011;56080;47.594;19.116;2024-03-29T20:58:52;9.40;;;2.80;;
69026;SDS011;56080;47.594;19.116;2024-03-29T21:08:53;6.80;;;2.60;;
69026;SDS011;56080;47.594;19.116;2024-03-29T21:18:54;7.90;;;2.90;;
69026;SDS011;56080;47.594;19.116;2024-03-29T21:28:55;7.60;;;2.80;;
69026;SDS011;56080;47.594;19.116;2024-03-29T21:38:58;7.80;;;2.50;;
69026;SDS011;56080;47.594;19.116;2024-03-29T21:48:59;9.20;;;2.60;;
69026;SDS011;56080;47.594;19.116;2024-03-29T21:59:06;6.40;;;1.90;;
69026;SDS011;56080;47.594;19.116;2024-03-29T22:09:00;6.30;;;1.80;;
69026;SDS011;56080;47.594;19.116;2024-03-29T22:19:02;8.50;;;2.30;;
69026;SDS011;56080;47.594;19.116;2024-03-29T22:29:03;7.30;;;1.90;;
69026;SDS011;56080;47.594;19.116;2024-03-29T22:39:04;7.40;;;1.90;;
69026;SDS011;56080;47.594;19.116;2024-03-29T22:49:05;7.10;;;1.90;;
69026;SDS011;56080;47.594;19.116;2024-03-29T22:59:06;5.60;;;1.70;;
69026;SDS011;56080;47.594;19.116;2024-03-29T23:09:08;7.90;;;2.10;;
69026;SDS011;56080;47.594;19.116;2024-03-29T23:19:09;7.40;;;2.00;;
69026;SDS011;56080;47.594;19.116;2024-03-29T23:29:10;6.80;;;1.90;;
69026;SDS011;56080;47.594;19.116;2024-03-29T23:39:11;6.60;;;2.10;;
69026;SDS011;56080;47.594;19.116;2024-03-29T23:49:13;6.80;;;2.20;;
69026;SDS011;56080;47.594;19.116;2024-03-29T23:59:14;7.90;;;2.10;;
